createdAt,value
2023-06-04T00:03:48.063Z,48.81
2023-06-04T00:08:31.921Z,49
2023-06-04T00:13:15.690Z,49.28
2023-06-04T00:17:59.673Z,49.68
2023-06-04T00:22:43.687Z,49.88
2023-06-04T00:27:27.467Z,50.09
2023-06-04T00:32:11.731Z,50.04
2023-06-04T00:36:55.709Z,49.93
2023-06-04T00:41:39.526Z,50.36
2023-06-04T00:46:23.509Z,50.33
2023-06-04T00:51:07.895Z,50.88
2023-06-04T00:55:51.850Z,51.75
2023-06-04T01:00:36.060Z,52
2023-06-04T01:05:19.835Z,51.97
2023-06-04T01:10:03.635Z,52.09
2023-06-04T01:14:47.462Z,52.46
2023-06-04T01:19:31.237Z,52.66
2023-06-04T01:24:15.484Z,52.63
2023-06-04T01:28:59.369Z,52.86
2023-06-04T01:33:43.156Z,52.89
2023-06-04T01:38:26.902Z,53.16
2023-06-04T01:43:10.632Z,53.32
2023-06-04T01:47:57.780Z,53.87
2023-06-04T01:52:41.661Z,54.29
2023-06-04T01:57:25.489Z,54.48
2023-06-04T02:02:10.184Z,54.77
2023-06-04T02:06:54.177Z,55.18
2023-06-04T02:11:37.929Z,55.5
2023-06-04T02:16:21.859Z,55.89
2023-06-04T02:21:05.971Z,56.6
2023-06-04T02:25:50.352Z,57.15
2023-06-04T02:30:34.153Z,57.6
2023-06-04T02:35:17.898Z,58.25
2023-06-04T02:40:01.685Z,58.35
2023-06-04T02:44:45.443Z,58.33
2023-06-04T02:49:29.200Z,58.76
2023-06-04T02:54:12.960Z,58.82
2023-06-04T02:58:56.740Z,59.33
2023-06-04T03:03:40.616Z,59.74
2023-06-04T03:08:24.594Z,59.89
2023-06-04T03:13:08.538Z,60.49
2023-06-04T03:17:52.624Z,60.56
2023-06-04T03:22:36.435Z,60.78
2023-06-04T03:27:20.255Z,60.87
2023-06-04T03:32:03.986Z,61.11
2023-06-04T03:36:47.963Z,61.24
2023-06-04T03:41:31.722Z,61.4
2023-06-04T03:46:15.557Z,61.08
2023-06-04T03:50:59.372Z,61.08
2023-06-04T03:55:43.149Z,60.47
2023-06-04T04:00:27.029Z,60.37
2023-06-04T04:05:10.797Z,59.75
2023-06-04T04:09:54.872Z,60.14
2023-06-04T04:14:38.631Z,60.47
2023-06-04T04:19:22.751Z,59.92
2023-06-04T04:24:06.805Z,58.64
2023-06-04T04:28:50.704Z,57.84
2023-06-04T04:33:34.465Z,57.93
2023-06-04T04:38:18.212Z,57.83
2023-06-04T04:43:01.985Z,57.48
2023-06-04T04:47:46.026Z,56.69
2023-06-04T04:52:29.811Z,56.8
2023-06-04T04:57:16.024Z,56.27
2023-06-04T05:01:59.896Z,56.25
2023-06-04T05:06:45.094Z,55.51
2023-06-04T05:11:28.920Z,55.42
2023-06-04T05:16:15.131Z,55.39
2023-06-04T05:20:59.052Z,54.84
2023-06-04T05:25:42.896Z,54.37
2023-06-04T05:30:26.625Z,54.1
2023-06-04T05:35:10.485Z,53.99
2023-06-04T05:39:54.292Z,53.69
2023-06-04T05:44:41.932Z,53.28
2023-06-04T05:49:25.863Z,52.4
2023-06-04T05:54:12.875Z,51.11
2023-06-04T05:58:56.788Z,50.73
2023-06-04T06:03:40.999Z,50.79
2023-06-04T06:08:24.790Z,50.83
2023-06-04T06:13:08.648Z,49.6
2023-06-04T06:17:55.001Z,49.45
2023-06-04T06:22:38.888Z,48.85
2023-06-04T06:27:22.686Z,48.81
2023-06-04T06:32:06.483Z,48.58
2023-06-04T06:36:50.254Z,47.79
2023-06-04T06:41:34.057Z,47.79
2023-06-04T06:46:18.302Z,47.58
2023-06-04T06:51:02.104Z,46.35
2023-06-04T06:55:45.828Z,46.28
2023-06-04T07:00:29.908Z,45.97
2023-06-04T07:05:13.823Z,45.07
2023-06-04T07:09:58.140Z,45.21
2023-06-04T07:14:44.367Z,44.93
2023-06-04T07:19:31.857Z,45.41
2023-06-04T07:24:15.903Z,43.5
2023-06-04T07:28:59.623Z,43.13
2023-06-04T07:33:43.501Z,42.59
2023-06-04T07:38:27.280Z,41.13
2023-06-04T07:43:11.052Z,40.96
2023-06-04T07:47:55.272Z,38.59
2023-06-04T07:52:39.168Z,38.03
2023-06-04T07:57:23.446Z,38
2023-06-04T08:02:07.208Z,37.75
2023-06-04T08:06:51.066Z,36.99
2023-06-04T08:11:34.824Z,34.81
2023-06-04T08:16:18.883Z,33.89
2023-06-04T08:21:02.859Z,32.74
2023-06-04T08:25:46.712Z,31.21
2023-06-04T08:30:30.505Z,28.87
2023-06-04T08:35:14.706Z,28.46
2023-06-04T08:39:58.651Z,27.3
2023-06-04T08:44:54.826Z,25.87
2023-06-04T08:49:38.667Z,25.01
2023-06-04T08:54:23.006Z,24.73
2023-06-04T08:59:06.971Z,24.83
2023-06-04T09:03:50.934Z,25.45
2023-06-04T09:08:35.024Z,26.27
2023-06-04T09:13:18.985Z,25.46
2023-06-04T09:18:02.949Z,25.5
2023-06-04T09:22:46.819Z,26.57
2023-06-04T09:27:30.834Z,26.47
2023-06-04T09:32:14.901Z,25.99
2023-06-04T09:36:58.850Z,25.12
2023-06-04T09:41:42.914Z,24.55
2023-06-04T09:46:26.896Z,23.69
2023-06-04T09:51:11.615Z,25.97
2023-06-04T09:55:55.500Z,25.8
2023-06-04T10:00:42.320Z,25.7
2023-06-04T10:05:26.177Z,24.94
2023-06-04T10:10:10.078Z,24.84
2023-06-04T10:14:57.025Z,24.03
2023-06-04T10:19:41.120Z,23.87
2023-06-04T10:24:25.069Z,25.11
2023-06-04T10:29:08.882Z,22.93
2023-06-04T10:33:52.969Z,23.24
2023-06-04T10:38:36.940Z,23.45
2023-06-04T10:43:20.814Z,22.63
2023-06-04T10:48:04.777Z,22.5
2023-06-04T10:52:48.618Z,23.09
2023-06-04T10:57:32.754Z,25.23
2023-06-04T11:02:16.567Z,24.83
2023-06-04T11:07:00.574Z,23.07
2023-06-04T11:11:44.350Z,22.17
2023-06-04T11:16:28.327Z,21.54
2023-06-04T11:21:12.431Z,21.15
2023-06-04T11:25:56.365Z,22.99
2023-06-04T11:30:40.116Z,22.88
2023-06-04T11:35:24.011Z,22.81
2023-06-04T11:40:07.840Z,22.95
2023-06-04T11:44:51.631Z,22.5
2023-06-04T11:49:35.489Z,22.23
2023-06-04T11:54:19.416Z,21.6
2023-06-04T11:59:03.491Z,22.54
2023-06-04T12:03:47.424Z,22.62
2023-06-04T12:08:31.496Z,22.26
2023-06-04T12:13:15.503Z,22.21
2023-06-04T12:17:59.446Z,22.18
2023-06-04T12:22:43.413Z,22.37
2023-06-04T12:27:27.279Z,23.33
2023-06-04T12:32:14.418Z,24.07
2023-06-04T12:36:58.203Z,23.25
2023-06-04T12:41:41.978Z,24.06
2023-06-04T12:46:25.968Z,22.36
2023-06-04T12:51:10.950Z,21.46
2023-06-04T12:55:54.833Z,22.49
2023-06-04T13:00:38.804Z,22.25
2023-06-04T13:05:22.850Z,22.48
2023-06-04T13:10:06.674Z,24.07
2023-06-04T13:14:50.688Z,23.15
2023-06-04T13:19:34.607Z,22.89
2023-06-04T13:24:18.503Z,22.21
2023-06-04T13:29:02.753Z,22.42
2023-06-04T13:33:46.517Z,22.9
2023-06-04T13:38:33.091Z,22.54
2023-06-04T13:43:17.131Z,22.82
2023-06-04T13:48:03.746Z,24.23
2023-06-04T13:52:47.716Z,24.47
2023-06-04T13:57:31.659Z,24.33
2023-06-04T14:02:15.767Z,24.48
2023-06-04T14:07:02.426Z,25.23
2023-06-04T14:11:49.347Z,24.58
2023-06-04T14:16:33.549Z,24.62
2023-06-04T14:21:17.333Z,24.89
2023-06-04T14:26:01.211Z,24.54
2023-06-04T14:30:44.999Z,23.35
2023-06-04T14:35:28.764Z,24.06
2023-06-04T14:40:12.593Z,24.83
2023-06-04T14:44:56.481Z,25.87
2023-06-04T14:49:40.496Z,26.24
2023-06-04T14:54:24.389Z,26.5
2023-06-04T14:59:08.164Z,26.53
2023-06-04T15:03:52.282Z,26.23
2023-06-04T15:08:36.293Z,26.67
2023-06-04T15:13:20.125Z,26.53
2023-06-04T15:18:04.787Z,26.8
2023-06-04T15:22:50.136Z,26.55
2023-06-04T15:27:34.165Z,26.32
2023-06-04T15:32:18.249Z,26.05
2023-06-04T15:37:02.282Z,26.08
2023-06-04T15:41:47.489Z,26.11
2023-06-04T15:46:31.819Z,25.62
2023-06-04T15:51:15.809Z,25.72
2023-06-04T15:55:59.752Z,24.89
2023-06-04T16:00:43.710Z,23.86
2023-06-04T16:05:27.620Z,23.94
2023-06-04T16:10:11.827Z,23.9
2023-06-04T16:14:55.790Z,24.25
2023-06-04T16:19:39.741Z,24.42
2023-06-04T16:24:23.784Z,24.11
2023-06-04T16:29:07.636Z,24.39
2023-06-04T16:33:51.533Z,24.8
2023-06-04T16:38:35.347Z,25.05
2023-06-04T16:43:19.399Z,24.74
2023-06-04T16:48:03.486Z,25.56
2023-06-04T16:52:47.522Z,25.39
2023-06-04T16:57:31.427Z,25.7
2023-06-04T17:02:15.450Z,25.69
2023-06-04T17:07:00.310Z,25.42
2023-06-04T17:11:44.473Z,25.94
2023-06-04T17:16:28.641Z,26.09
2023-06-04T17:21:14.798Z,26.3
2023-06-04T17:25:58.810Z,26.37
2023-06-04T17:30:44.296Z,26.77
2023-06-04T17:35:28.244Z,26.7
2023-06-04T17:40:12.295Z,25.78
2023-06-04T17:44:57.382Z,26.64
2023-06-04T17:49:42.348Z,26.79
2023-06-04T17:54:26.344Z,26.45
2023-06-04T17:59:10.378Z,25.98
2023-06-04T18:03:54.457Z,26.32
2023-06-04T18:08:38.593Z,26.5
2023-06-04T18:13:22.555Z,27.19
2023-06-04T18:18:06.673Z,27.49
2023-06-04T18:22:50.674Z,28.05
2023-06-04T18:27:34.623Z,28.44
2023-06-04T18:32:18.602Z,29.01
2023-06-04T18:37:02.537Z,29.09
2023-06-04T18:41:46.694Z,29.36
2023-06-04T18:46:30.716Z,30.07
2023-06-04T18:51:14.786Z,30.54
2023-06-04T18:55:58.764Z,30.77
2023-06-04T19:00:42.835Z,31.45
2023-06-04T19:05:26.758Z,31.73
2023-06-04T19:10:10.858Z,32.98
2023-06-04T19:14:54.884Z,32.6
2023-06-04T19:19:38.954Z,33.13
2023-06-04T19:24:22.895Z,34.14
2023-06-04T19:29:08.334Z,34.5
2023-06-04T19:33:54.670Z,35.08
2023-06-04T19:38:38.562Z,35.48
2023-06-04T19:43:22.927Z,35.73
2023-06-04T19:48:06.957Z,36.59
2023-06-04T19:52:51.075Z,37.21
2023-06-04T19:57:34.966Z,37.76
2023-06-04T20:02:18.866Z,38.73
2023-06-04T20:07:03.095Z,39.2
2023-06-04T20:11:47.064Z,39.49
2023-06-04T20:16:31.050Z,39.9
2023-06-04T20:21:15.039Z,40.59
2023-06-04T20:25:59.160Z,40.71
2023-06-04T20:30:43.140Z,41.09
2023-06-04T20:35:27.236Z,41.42
2023-06-04T20:40:11.342Z,41.48
2023-06-04T20:44:55.098Z,41.47
2023-06-04T20:49:38.949Z,42.03
2023-06-04T20:54:23.288Z,42.24
2023-06-04T20:59:09.796Z,42.42
2023-06-04T21:03:57.014Z,42.62
2023-06-04T21:08:42.178Z,42.41
2023-06-04T21:13:26.187Z,42.7
2023-06-04T21:18:10.011Z,42.6
2023-06-04T21:22:53.830Z,42.9
2023-06-04T21:27:37.695Z,42.85
2023-06-04T21:32:42.535Z,42.62
2023-06-04T21:37:26.525Z,42.75
2023-06-04T21:42:10.727Z,42.68
2023-06-04T21:46:54.492Z,42.51
2023-06-04T21:51:38.248Z,42.5
2023-06-04T21:56:22.623Z,42.29
2023-06-04T22:01:09.384Z,42.41
2023-06-04T22:05:53.489Z,42.49
2023-06-04T22:10:39.642Z,42.29
2023-06-04T22:15:23.515Z,42.24
2023-06-04T22:20:07.363Z,41.86
2023-06-04T22:24:51.263Z,42.2
2023-06-04T22:29:35.076Z,42.33
2023-06-04T22:34:18.851Z,42.5
2023-06-04T22:39:02.660Z,42.4
2023-06-04T22:43:47.621Z,42.5
2023-06-04T22:48:31.387Z,42.75
2023-06-04T22:53:15.193Z,43
2023-06-04T22:57:59.146Z,42.99
2023-06-04T23:02:43.166Z,43.33
2023-06-04T23:07:27.110Z,44.04
2023-06-04T23:12:10.943Z,44.39
2023-06-04T23:16:55.231Z,44.3
2023-06-04T23:21:39.017Z,44.67
2023-06-04T23:26:22.818Z,44.91
2023-06-04T23:31:06.899Z,45.47
2023-06-04T23:35:50.998Z,45.57
2023-06-04T23:40:34.917Z,46.04
2023-06-04T23:45:18.691Z,46.46
2023-06-04T23:50:02.495Z,47.09
2023-06-04T23:54:46.545Z,47.82
2023-06-04T23:59:30.288Z,48.81
